sensor_id;sensor_type;location;lat;lon;timestamp;pressure;altitude;pressure_sealevel;temperature;humidity
57376;BME280;44805;45.048;5.062;2022-10-16T08:38:28;99996.97;;;18.38;75.19
57376;BME280;44805;45.048;5.062;2022-10-16T08:41:01;99924.41;;;17.93;74.30
57376;BME280;44805;45.048;5.062;2022-10-16T09:24:53;99967.09;;;19.19;66.77
57376;BME280;44805;45.048;5.062;2022-10-16T09:27:30;99906.72;;;18.70;66.95
57376;BME280;44805;45.048;5.062;2022-10-16T09:29:57;99946.03;;;18.90;67.14
57376;BME280;44805;45.048;5.062;2022-10-16T09:32:31;99881.78;;;18.50;67.34
57376;BME280;44805;45.048;5.062;2022-10-16T09:35:09;99941.50;;;18.83;66.17
57376;BME280;44805;45.048;5.062;2022-10-16T09:37:48;99991.81;;;19.35;66.11
57376;BME280;44805;45.048;5.062;2022-10-16T09:40:50;99966.31;;;19.25;65.77
57376;BME280;44805;45.048;5.062;2022-10-16T10:20:18;100010.50;;;20.96;60.00
57376;BME280;44805;45.048;5.062;2022-10-16T11:06:34;99895.63;;;21.71;54.72
57376;BME280;44805;45.048;5.062;2022-10-16T11:09:49;100034.31;;;22.64;55.30
57376;BME280;44805;45.048;5.062;2022-10-16T11:15:43;99922.13;;;22.11;54.89
57376;BME280;44805;45.048;5.062;2022-10-16T11:18:26;99884.34;;;21.87;55.22
57376;BME280;44805;45.048;5.062;2022-10-16T11:21:00;99881.59;;;22.01;56.38
57376;BME280;44805;45.048;5.062;2022-10-16T11:23:33;100038.25;;;22.87;56.21
57376;BME280;44805;45.048;5.062;2022-10-16T11:26:08;99942.88;;;22.22;55.91
57376;BME280;44805;45.048;5.062;2022-10-16T11:38:43;99966.56;;;22.69;54.91
57376;BME280;44805;45.048;5.062;2022-10-16T11:41:20;99930.53;;;22.40;55.03
57376;BME280;44805;45.048;5.062;2022-10-16T11:49:50;99928.19;;;22.50;56.33
57376;BME280;44805;45.048;5.062;2022-10-16T11:52:39;100016.69;;;23.00;56.90
57376;BME280;44805;45.048;5.062;2022-10-16T11:57:45;99930.78;;;22.57;57.60
57376;BME280;44805;45.048;5.062;2022-10-16T12:00:25;99977.56;;;22.86;57.79
57376;BME280;44805;45.048;5.062;2022-10-16T12:06:10;99988.19;;;22.99;57.51
57376;BME280;44805;45.048;5.062;2022-10-16T12:08:38;100022.91;;;22.94;58.47
57376;BME280;44805;45.048;5.062;2022-10-16T12:11:42;99872.75;;;22.19;58.16
57376;BME280;44805;45.048;5.062;2022-10-16T12:19:18;99925.34;;;22.63;57.91
57376;BME280;44805;45.048;5.062;2022-10-16T12:21:44;99921.69;;;22.58;57.62
57376;BME280;44805;45.048;5.062;2022-10-16T12:24:34;100004.41;;;23.23;58.67
57376;BME280;44805;45.048;5.062;2022-10-16T12:27:01;99943.25;;;22.88;58.40
57376;BME280;44805;45.048;5.062;2022-10-16T12:29:39;99917.44;;;22.68;58.16
57376;BME280;44805;45.048;5.062;2022-10-16T12:34:58;99914.59;;;22.45;57.95
57376;BME280;44805;45.048;5.062;2022-10-16T12:37:26;99849.63;;;21.99;59.25
57376;BME280;44805;45.048;5.062;2022-10-16T12:39:54;99914.00;;;22.43;59.04
57376;BME280;44805;45.048;5.062;2022-10-16T12:42:33;99872.34;;;22.15;59.22
57376;BME280;44805;45.048;5.062;2022-10-16T12:45:34;99951.81;;;22.60;60.72
57376;BME280;44805;45.048;5.062;2022-10-16T12:48:01;99906.63;;;22.38;60.05
57376;BME280;44805;45.048;5.062;2022-10-16T12:50:36;99858.25;;;22.01;59.92
57376;BME280;44805;45.048;5.062;2022-10-16T12:53:17;99850.75;;;22.10;61.05
57376;BME280;44805;45.048;5.062;2022-10-16T13:01:10;99850.28;;;22.13;61.79
57376;BME280;44805;45.048;5.062;2022-10-16T13:06:53;100001.91;;;23.09;61.24
57376;BME280;44805;45.048;5.062;2022-10-16T14:30:58;99990.97;;;24.01;50.95
57376;BME280;44805;45.048;5.062;2022-10-16T14:36:18;99863.31;;;23.08;51.49
57376;BME280;44805;45.048;5.062;2022-10-16T14:39:05;99884.59;;;23.22;50.60
57376;BME280;44805;45.048;5.062;2022-10-16T14:41:58;99910.81;;;23.38;50.30
57376;BME280;44805;45.048;5.062;2022-10-16T14:44:31;99923.75;;;23.59;49.93
57376;BME280;44805;45.048;5.062;2022-10-16T14:46:57;99890.72;;;23.29;50.40
57376;BME280;44805;45.048;5.062;2022-10-16T14:49:42;99875.53;;;23.04;49.80
57376;BME280;44805;45.048;5.062;2022-10-16T14:52:12;99922.69;;;23.30;50.59
57376;BME280;44805;45.048;5.062;2022-10-16T14:57:23;99872.38;;;23.07;50.74
57376;BME280;44805;45.048;5.062;2022-10-16T14:59:57;99947.84;;;23.36;50.88
57376;BME280;44805;45.048;5.062;2022-10-16T15:02:25;100014.97;;;23.73;50.65
57376;BME280;44805;45.048;5.062;2022-10-16T15:04:54;99987.16;;;23.49;51.76
57376;BME280;44805;45.048;5.062;2022-10-16T15:07:20;99894.94;;;22.88;52.35
57376;BME280;44805;45.048;5.062;2022-10-16T15:09:46;99904.41;;;22.90;52.23
57376;BME280;44805;45.048;5.062;2022-10-16T15:12:11;99882.38;;;22.82;52.31
57376;BME280;44805;45.048;5.062;2022-10-16T15:18:14;99870.94;;;22.56;53.47
57376;BME280;44805;45.048;5.062;2022-10-16T15:30:18;99969.03;;;22.70;55.81
57376;BME280;44805;45.048;5.062;2022-10-16T15:32:43;99888.56;;;22.27;56.31
57376;BME280;44805;45.048;5.062;2022-10-16T15:35:09;99881.41;;;22.21;56.17
57376;BME280;44805;45.048;5.062;2022-10-16T15:37:34;99922.94;;;22.37;56.52
57376;BME280;44805;45.048;5.062;2022-10-16T15:40:00;99880.31;;;22.03;56.74
57376;BME280;44805;45.048;5.062;2022-10-16T15:42:26;99911.59;;;22.09;57.42
57376;BME280;44805;45.048;5.062;2022-10-16T15:45:17;100002.38;;;22.63;57.29
57376;BME280;44805;45.048;5.062;2022-10-16T15:47:45;99905.53;;;21.96;57.90
57376;BME280;44805;45.048;5.062;2022-10-16T15:50:15;100002.84;;;22.53;58.65
57376;BME280;44805;45.048;5.062;2022-10-16T16:21:04;99904.88;;;21.43;61.90
57376;BME280;44805;45.048;5.062;2022-10-16T16:23:30;99948.44;;;21.64;62.61
57376;BME280;44805;45.048;5.062;2022-10-16T16:26:21;99969.00;;;21.70;62.18
57376;BME280;44805;45.048;5.062;2022-10-16T16:28:51;99963.72;;;21.57;62.87
57376;BME280;44805;45.048;5.062;2022-10-16T16:31:24;99973.00;;;21.61;62.85
57376;BME280;44805;45.048;5.062;2022-10-16T16:33:50;99961.22;;;21.62;63.25
57376;BME280;44805;45.048;5.062;2022-10-16T16:36:17;99995.78;;;21.70;63.33
57376;BME280;44805;45.048;5.062;2022-10-16T16:38:43;99990.06;;;21.60;63.76
57376;BME280;44805;45.048;5.062;2022-10-16T16:41:18;99929.13;;;21.10;64.63
57376;BME280;44805;45.048;5.062;2022-10-16T16:43:45;99979.91;;;21.30;65.64
57376;BME280;44805;45.048;5.062;2022-10-16T16:46:13;99985.91;;;21.25;66.05
57376;BME280;44805;45.048;5.062;2022-10-16T16:48:39;99945.06;;;20.85;66.33
57376;BME280;44805;45.048;5.062;2022-10-16T16:51:06;99981.22;;;21.08;67.79
57376;BME280;44805;45.048;5.062;2022-10-16T16:53:36;100059.38;;;21.50;68.29
57376;BME280;44805;45.048;5.062;2022-10-16T16:56:05;99955.81;;;20.65;68.92
57376;BME280;44805;45.048;5.062;2022-10-16T16:58:38;99952.53;;;20.56;69.63
57376;BME280;44805;45.048;5.062;2022-10-16T17:01:33;100068.72;;;21.27;70.69
57376;BME280;44805;45.048;5.062;2022-10-16T17:04:05;100001.06;;;20.80;70.64
57376;BME280;44805;45.048;5.062;2022-10-16T17:06:47;100003.94;;;20.85;70.80
57376;BME280;44805;45.048;5.062;2022-10-16T17:09:12;100023.06;;;20.95;71.26
57376;BME280;44805;45.048;5.062;2022-10-16T17:11:41;99959.94;;;20.41;71.76
57376;BME280;44805;45.048;5.062;2022-10-16T17:16:41;100042.63;;;20.76;72.74
57376;BME280;44805;45.048;5.062;2022-10-16T17:19:12;99983.78;;;20.29;72.87
57376;BME280;44805;45.048;5.062;2022-10-16T17:21:39;100013.84;;;20.51;73.03
57376;BME280;44805;45.048;5.062;2022-10-16T17:24:08;100044.72;;;20.60;73.77
57376;BME280;44805;45.048;5.062;2022-10-16T17:26:34;100025.56;;;20.44;73.54
57376;BME280;44805;45.048;5.062;2022-10-16T17:29:03;100056.00;;;20.49;74.00
57376;BME280;44805;45.048;5.062;2022-10-16T17:31:33;99994.25;;;20.04;73.87
57376;BME280;44805;45.048;5.062;2022-10-16T17:34:04;99986.06;;;19.92;74.24
57376;BME280;44805;45.048;5.062;2022-10-16T17:36:31;100051.28;;;20.38;74.20
57376;BME280;44805;45.048;5.062;2022-10-16T17:58:51;100130.66;;;20.31;75.81
57376;BME280;44805;45.048;5.062;2022-10-16T18:04:40;100112.53;;;20.20;76.37
57376;BME280;44805;45.048;5.062;2022-10-16T18:07:08;100147.16;;;20.41;76.75
57376;BME280;44805;45.048;5.062;2022-10-16T18:09:34;100198.03;;;20.68;76.69
57376;BME280;44805;45.048;5.062;2022-10-16T18:12:38;100102.00;;;19.98;76.87
57376;BME280;44805;45.048;5.062;2022-10-16T18:15:04;100135.59;;;20.21;77.72
57376;BME280;44805;45.048;5.062;2022-10-16T18:20:33;100211.00;;;20.64;78.24
57376;BME280;44805;45.048;5.062;2022-10-16T18:23:07;100144.59;;;20.20;78.96
57376;BME280;44805;45.048;5.062;2022-10-16T18:25:35;100107.94;;;19.93;79.41
57376;BME280;44805;45.048;5.062;2022-10-16T18:28:08;100104.59;;;19.78;79.57
57376;BME280;44805;45.048;5.062;2022-10-16T18:30:34;100134.69;;;20.00;80.55
57376;BME280;44805;45.048;5.062;2022-10-16T23:20:34;100360.97;;;17.96;99.43
57376;BME280;44805;45.048;5.062;2022-10-16T23:23:09;100333.75;;;17.86;100.00
57376;BME280;44805;45.048;5.062;2022-10-16T23:25:35;100218.78;;;17.07;100.00
57376;BME280;44805;45.048;5.062;2022-10-16T23:28:03;100381.91;;;17.99;100.00
57376;BME280;44805;45.048;5.062;2022-10-16T23:30:29;100309.44;;;17.66;100.00
57376;BME280;44805;45.048;5.062;2022-10-16T23:32:54;100273.56;;;17.39;100.00
57376;BME280;44805;45.048;5.062;2022-10-16T23:35:19;100369.59;;;17.98;100.00
57376;BME280;44805;45.048;5.062;2022-10-16T23:37:45;100274.75;;;17.36;100.00
57376;BME280;44805;45.048;5.062;2022-10-16T23:40:10;100375.00;;;17.90;100.00
57376;BME280;44805;45.048;5.062;2022-10-16T23:42:36;100374.28;;;17.96;100.00
57376;BME280;44805;45.048;5.062;2022-10-16T23:45:01;100380.25;;;17.98;100.00
57376;BME280;44805;45.048;5.062;2022-10-16T23:47:27;100382.38;;;18.03;100.00
57376;BME280;44805;45.048;5.062;2022-10-16T23:49:52;100284.38;;;17.38;100.00
57376;BME280;44805;45.048;5.062;2022-10-16T23:52:18;100379.78;;;17.95;100.00
57376;BME280;44805;45.048;5.062;2022-10-16T23:54:43;100359.09;;;17.82;100.00
57376;BME280;44805;45.048;5.062;2022-10-16T23:57:09;100341.34;;;17.51;100.00
57376;BME280;44805;45.048;5.062;2022-10-16T23:59:34;100338.69;;;17.51;100.00
